WU Storia Txt - Stazione meteorologica di Pomezia (RM)




Webcam Castelli Romani more information Webcam Castelli Romani


Webcam Traffico live more information Webcam Traffico live


avvertimento per Neve / Ghiaccio more information rain snow radar



Notice: Undefined offset: 0 in /web/htdocs/www.meteopomezia.it/home/weather28/wsSideColom.php on line 204

altri nostri siti meteo:

Pomeziameteo 1Sito sul meteo

Pomeziameteo DashboardSito sul meteo

Caput FrigorisSito sul meteo

BarcellonameteoSito sul meteo

MeteoipassiSito sul meteo

MeteotortoretoSito sul meteo

ViterbometeoSito sul meteo

TortoretometeolidoSito sul meteo

MeteospinacetoSito sul meteo

MeteoardeaSito sul meteo

MeteopalestrinaSito sul meteo

MeteocastelliSito sul meteo

MeteoiserniaSito sul meteo

RomaeurmeteoSito sul meteo

MeteomarconiaSito sul meteo

CastelnuovovomanometeoSito sul meteo

MeteogonzagaSito sul meteo

MeteonetworkInvio dai a Meteonetwork

Rete Linea MeteoInvio dai a Meteonetwork



Neve/Ghiaccio Inizio validita dal: 25-02-2018 13:00 Fino: 26-02-2018 12:59 Allerta per: Neve/Ghiaccio Livello: Arancione info button
Temperature minime estreme Inizio validita dal: 25-02-2018 13:00 Fino: 26-02-2018 00:59 Allerta per: Temperature minime estreme Livello: Arancione info button

Weather Underground Storia pagina Testo

Quotidiano Riepilogo per Febbraio 25, 2018 Unita:  Metrico    Inglese   Entrambi
« Indietro Day
Avanti Day »
Quotidiano Settimanale mensile Annuale Personalizzato
  Attuale: Max: Min: Media:
Temperatura: -13.8 °C -17.8 °C -14.1 °C -13.5 °C
P.to Rugiada: -14.7 °C -17.8 °C -15.1 °C -14.6 °C
Umidita: 89 % Humidity % 82 % 87 %
Vel. Vento: 12.9 km/h 0 km/h 0 km/h 5.1 km/h
Raffiche: 18.2 km/h 0 km/h - -
Vento:NW - - SSE
Pressione: 34029.3 hPa 0 hPa 34015.8 hPa -
Precipitazioni: 0 mm      
Historical Graphs
 
 
Dati di tabella per il Febbraio 25, 2018
Tempo Temperatura P.to Rugiada Pressione Vento Vel. Vento Raffiche Umidita Tasso delle precipitazioni (oraria)
-17.8 °C -17.8 °C 0 hPa Calm     Humidity % 0 mm
00:00 -13.2 °C -14.1 °C 34073.3 hPa East 5.1 km/h 10.3 km/h 90 % 0 mm
00:05 -13.2 °C -14.1 °C 34073.3 hPa East 2.6 km/h 10.3 km/h 90 % 0 mm
00:10 -13.3 °C -14.1 °C 34073.3 hPa Calm   7.7 km/h 90 % 0 mm
00:15 -13.3 °C -14.2 °C 34073.3 hPa Calm     90 % 0 mm
00:20 -13.3 °C -14.2 °C 34073.3 hPa Calm     90 % 0 mm
00:25 -13.3 °C -14.2 °C 34073.3 hPa Calm     90 % 0 mm
00:30 -13.3 °C -14.2 °C 34073.3 hPa Calm     90 % 0 mm
00:35 -13.3 °C -14.2 °C 34073.3 hPa Calm     90 % 0 mm
00:40 -13.3 °C -14.2 °C 34073.3 hPa Calm     90 % 0 mm
00:45 -13.3 °C -14.1 °C 34073.3 hPa Calm     90 % 0 mm
00:50 -13.3 °C -14.1 °C 34086.9 hPa ESE 5.1 km/h 7.7 km/h 90 % 0 mm
00:55 -13.3 °C -14.2 °C 34073.3 hPa Calm   12.9 km/h 90 % 0 mm
01:00 -13.3 °C -14.2 °C 34073.3 hPa SSE 7.7 km/h 12.9 km/h 90 % 0 mm
01:05 -13.3 °C -14.1 °C 34073.3 hPa SSE 5.1 km/h 12.9 km/h 90 % 0 mm
01:10 -13.2 °C -14.1 °C 34073.3 hPa Calm   7.7 km/h 90 % 0 mm
01:15 -13.3 °C -14.1 °C 34073.3 hPa Calm     90 % 0 mm
01:20 -13.3 °C -14.2 °C 34073.3 hPa Calm     90 % 0 mm
01:25 -13.3 °C -14.1 °C 34073.3 hPa ENE 10.3 km/h 12.9 km/h 91 % 0 mm
01:30 -13.2 °C -14 °C 34073.3 hPa Calm   12.9 km/h 91 % 0 mm
01:40 -13.2 °C -14.1 °C 34073.3 hPa ESE 10.3 km/h 15.6 km/h 90 % 0 mm
01:45 -13.3 °C -14.1 °C 34073.3 hPa ENE 7.7 km/h 15.6 km/h 90 % 0 mm
01:50 -13.3 °C -14.1 °C 34063.2 hPa NE 10.3 km/h 20.8 km/h 90 % 0 mm
01:55 -13.2 °C -14.1 °C 34063.2 hPa NE 10.3 km/h 18.2 km/h 90 % 0 mm
02:00 -13.1 °C -14.1 °C 34063.2 hPa NE 5.1 km/h 18.2 km/h 89 % 0 mm
02:05 -13 °C -14.1 °C 34063.2 hPa NE 12.9 km/h 20.8 km/h 88 % 0 mm
02:10 -12.9 °C -14.1 °C 34063.2 hPa ENE 2.6 km/h 15.6 km/h 87 % 0 mm
02:15 -12.9 °C -14.2 °C 34063.2 hPa NE 12.9 km/h 15.6 km/h 86 % 0 mm
02:20 -12.9 °C -14.2 °C 34063.2 hPa NE 10.3 km/h 15.6 km/h 85 % 0 mm
02:25 -12.8 °C -14.3 °C 34063.2 hPa NE 15.6 km/h 15.6 km/h 84 % 0 mm
02:30 -12.8 °C -14.3 °C 34049.6 hPa NE 10.3 km/h 15.6 km/h 83 % 0 mm
02:35 -12.8 °C -14.3 °C 34049.6 hPa ENE 10.3 km/h 12.9 km/h 83 % 0 mm
02:40 -12.8 °C -14.3 °C 34049.6 hPa NE 15.6 km/h 15.6 km/h 83 % 0 mm
02:45 -12.8 °C -14.5 °C 34049.6 hPa NNE 7.7 km/h 12.9 km/h 82 % 0 mm
02:50 -12.9 °C -14.6 °C 34049.6 hPa NE 5.1 km/h 12.9 km/h 82 % 0 mm
02:55 -12.9 °C -14.5 °C 34049.6 hPa NE 5.1 km/h 10.3 km/h 83 % 0 mm
03:00 -13 °C -14.6 °C 34049.6 hPa Calm   5.1 km/h 83 % 0 mm
03:05 -13 °C -14.6 °C 34049.6 hPa Calm     83 % 0 mm
03:10 -13.1 °C -14.6 °C 34049.6 hPa Calm     83 % 0 mm
03:15 -13.1 °C -14.5 °C 34049.6 hPa Calm     84 % 0 mm
03:20 -13.1 °C -14.6 °C 34049.6 hPa NE 2.6 km/h 7.7 km/h 84 % 0 mm
03:25 -13.2 °C -14.6 °C 34049.6 hPa NE 2.6 km/h 5.1 km/h 84 % 0 mm
03:30 -13.2 °C -14.5 °C 34039.5 hPa NE 2.6 km/h 2.6 km/h 85 % 0 mm
03:35 -13.1 °C -14.4 °C 34039.5 hPa East 15.6 km/h 18.2 km/h 85 % 0 mm
03:40 -13.1 °C -14.4 °C 34039.5 hPa SE 15.6 km/h 23.3 km/h 85 % 0 mm
03:45 -13.2 °C -14.6 °C 34049.6 hPa SE 10.3 km/h 18.2 km/h 85 % 0 mm
03:50 -13.4 °C -14.7 °C 34039.5 hPa East 7.7 km/h 10.3 km/h 85 % 0 mm
03:55 -13.4 °C -14.7 °C 34039.5 hPa NE 7.7 km/h 7.7 km/h 86 % 0 mm
04:00 -13.4 °C -14.6 °C 34049.6 hPa NNE 2.6 km/h 7.7 km/h 87 % 0 mm
04:10 -13.5 °C -14.6 °C 34039.5 hPa NNW 2.6 km/h 5.1 km/h 88 % 0 mm
04:15 -13.5 °C -14.6 °C 34039.5 hPa NNW 2.6 km/h 5.1 km/h 88 % 0 mm
04:20 -13.5 °C -14.6 °C 34039.5 hPa Calm   5.1 km/h 88 % 0 mm
04:25 -13.4 °C -14.5 °C 34039.5 hPa NNW 5.1 km/h 5.1 km/h 88 % 0 mm
04:30 -13.4 °C -14.5 °C 34039.5 hPa North 5.1 km/h 7.7 km/h 88 % 0 mm
04:35 -13.4 °C -14.4 °C 34039.5 hPa North 5.1 km/h 10.3 km/h 88 % 0 mm
04:40 -13.4 °C -14.4 °C 34039.5 hPa NE 5.1 km/h 12.9 km/h 88 % 0 mm
04:45 -13.4 °C -14.4 °C 34029.3 hPa North 2.6 km/h 10.3 km/h 88 % 0 mm
04:50 -13.4 °C -14.4 °C 34029.3 hPa ENE 12.9 km/h 20.8 km/h 88 % 0 mm
04:55 -13.4 °C -14.4 °C 34029.3 hPa ENE 2.6 km/h 18.2 km/h 88 % 0 mm
05:00 -13.4 °C -14.4 °C 34029.3 hPa ENE 2.6 km/h 7.7 km/h 88 % 0 mm
05:05 -13.4 °C -14.4 °C 34029.3 hPa ENE 2.6 km/h 5.1 km/h 88 % 0 mm
05:10 -13.4 °C -14.4 °C 34029.3 hPa ENE 2.6 km/h 5.1 km/h 88 % 0 mm
05:15 -13.4 °C -14.4 °C 34029.3 hPa Calm   5.1 km/h 88 % 0 mm
05:20 -13.4 °C -14.5 °C 34029.3 hPa Calm     88 % 0 mm
05:25 -13.4 °C -14.5 °C 34029.3 hPa Calm   2.6 km/h 88 % 0 mm
05:30 -13.4 °C -14.5 °C 34029.3 hPa Calm     88 % 0 mm
05:35 -13.5 °C -14.6 °C 34029.3 hPa Calm     88 % 0 mm
05:40 -13.5 °C -14.6 °C 34029.3 hPa Calm     88 % 0 mm
05:45 -13.5 °C -14.6 °C 34029.3 hPa ENE 2.6 km/h 5.1 km/h 88 % 0 mm
05:50 -13.5 °C -14.6 °C 34029.3 hPa ENE 2.6 km/h 7.7 km/h 88 % 0 mm
05:55 -13.6 °C -14.6 °C 34029.3 hPa NNW 5.1 km/h 12.9 km/h 88 % 0 mm
06:00 -13.7 °C -14.7 °C 34029.3 hPa NNW 2.6 km/h 10.3 km/h 88 % 0 mm
06:05 -13.7 °C -14.8 °C 34029.3 hPa Calm   18.2 km/h 88 % 0 mm
06:10 -13.7 °C -14.8 °C 34029.3 hPa Calm   7.7 km/h 88 % 0 mm
06:15 -13.8 °C -14.8 °C 34029.3 hPa NNW 2.6 km/h 5.1 km/h 88 % 0 mm
06:20 -13.8 °C -14.8 °C 34029.3 hPa Calm   5.1 km/h 88 % 0 mm
06:25 -13.8 °C -14.9 °C 34029.3 hPa NNW 5.1 km/h 7.7 km/h 88 % 0 mm
06:30 -13.8 °C -14.8 °C 34029.3 hPa NNW 7.7 km/h 10.3 km/h 88 % 0 mm
06:35 -13.8 °C -14.8 °C 34015.8 hPa NNW 7.7 km/h 12.9 km/h 89 % 0 mm
06:40 -13.8 °C -14.8 °C 34015.8 hPa NNW 5.1 km/h 12.9 km/h 88 % 0 mm
06:45 -13.7 °C -14.8 °C 34029.3 hPa Calm   10.3 km/h 88 % 0 mm
06:50 -13.7 °C -14.8 °C 34029.3 hPa Calm     88 % 0 mm
06:55 -13.7 °C -14.8 °C 34029.3 hPa Calm     88 % 0 mm
07:00 -13.8 °C -14.9 °C 34029.3 hPa NW 5.1 km/h 20.8 km/h 88 % 0 mm
07:05 -13.9 °C -14.9 °C 34029.3 hPa NNW 12.9 km/h 15.6 km/h 88 % 0 mm
07:10 -13.9 °C -15 °C 34029.3 hPa NW 7.7 km/h 20.8 km/h 88 % 0 mm
07:15 -14 °C -14.9 °C 34029.3 hPa NW 20.8 km/h 20.8 km/h 89 % 0 mm
07:20 -14 °C -14.9 °C 34029.3 hPa NW 12.9 km/h 18.2 km/h 89 % 0 mm
07:25 -14.1 °C -15 °C 34029.3 hPa NNW 10.3 km/h 20.8 km/h 89 % 0 mm
07:30 -14.1 °C -15.1 °C 34029.3 hPa NW 10.3 km/h 23.3 km/h 89 % 0 mm
07:35 -14.1 °C -15.1 °C 34029.3 hPa NW 7.7 km/h 20.8 km/h 89 % 0 mm
07:40 -14.1 °C -14.9 °C 34029.3 hPa NW 5.1 km/h 10.3 km/h 90 % 0 mm
07:45 -14.1 °C -14.9 °C 34029.3 hPa NW 7.7 km/h 15.6 km/h 90 % 0 mm
07:50 -14.1 °C -15 °C 34029.3 hPa NW 7.7 km/h 23.3 km/h 90 % 0 mm
07:55 -14.1 °C -15 °C 34029.3 hPa NNW 7.7 km/h 20.8 km/h 90 % 0 mm
08:00 -14.1 °C -15 °C 34029.3 hPa NW 7.7 km/h 23.3 km/h 90 % 0 mm
08:05 -14.1 °C -14.9 °C 34029.3 hPa North 5.1 km/h 23.3 km/h 90 % 0 mm
08:10 -14.1 °C -14.9 °C 34029.3 hPa NNW 12.9 km/h 18.2 km/h 90 % 0 mm
08:15 -14 °C -14.9 °C 34029.3 hPa NW 10.3 km/h 20.8 km/h 90 % 0 mm
08:20 -13.9 °C -14.8 °C 34029.3 hPa Calm   20.8 km/h 90 % 0 mm
08:25 -13.8 °C -14.7 °C 34029.3 hPa NNW 5.1 km/h 25.9 km/h 90 % 0 mm
08:30 -13.8 °C -14.7 °C 34029.3 hPa NW 5.1 km/h 20.8 km/h 90 % 0 mm
08:35 -13.8 °C -14.7 °C 34029.3 hPa NW 12.9 km/h 18.2 km/h 89 % 0 mm
Stazione meteorologica di Pomezia (RM)
complimenti di Weather Underground - 4 mb

Script sviluppato da  Jim McMurry - jmcmurry@mwt.net Adattato per il modello da  Wim van der Kuil - Leuven-Template.eu

Potete trovare le nostre info meteo anche a:

UK Metoffice

European Weather Network

Weather Underground

AWEKAS

Citizen Weather Observer Program (CWOP)

HAMweather, WeatherForYou, PWS Weather

Strumentazione usata:

Stazione meteo
Davis VP2

Programma gestore dati meteo
WVIEW

Server per i dati meteo
Pc-WDS5

Provider
PC-HP-6005

Davis VP2

WVIEW

Pc-WDS5

PC-HP-6005